sensor_id;sensor_type;location;lat;lon;timestamp;pressure;altitude;pressure_sealevel;temperature;humidity
55517;BME280;41724;51.176;-0.708;2024-01-30T00:00:38;101595.68;;;10.74;100.00
55517;BME280;41724;51.176;-0.708;2024-01-30T00:03:06;101599.35;;;9.62;100.00
55517;BME280;41724;51.176;-0.708;2024-01-30T00:05:33;101598.96;;;10.09;100.00
55517;BME280;41724;51.176;-0.708;2024-01-30T00:08:00;101604.90;;;9.94;100.00
55517;BME280;41724;51.176;-0.708;2024-01-30T00:10:27;101614.41;;;10.25;100.00
55517;BME280;41724;51.176;-0.708;2024-01-30T00:12:54;101603.71;;;9.48;100.00
55517;BME280;41724;51.176;-0.708;2024-01-30T00:15:21;101627.14;;;9.60;100.00
55517;BME280;41724;51.176;-0.708;2024-01-30T00:17:48;101610.79;;;9.91;100.00
55517;BME280;41724;51.176;-0.708;2024-01-30T00:20:15;101619.59;;;9.73;100.00
55517;BME280;41724;51.176;-0.708;2024-01-30T00:22:42;101634.11;;;9.23;100.00
55517;BME280;41724;51.176;-0.708;2024-01-30T00:25:09;101613.55;;;9.09;100.00
55517;BME280;41724;51.176;-0.708;2024-01-30T00:27:36;101600.82;;;9.21;100.00
55517;BME280;41724;51.176;-0.708;2024-01-30T00:30:05;101621.70;;;9.40;100.00
55517;BME280;41724;51.176;-0.708;2024-01-30T00:32:32;101617.84;;;10.01;100.00
55517;BME280;41724;51.176;-0.708;2024-01-30T00:34:59;101608.99;;;10.07;100.00
55517;BME280;41724;51.176;-0.708;2024-01-30T00:37:26;101628.37;;;9.88;100.00
55517;BME280;41724;51.176;-0.708;2024-01-30T00:39:53;101626.17;;;9.76;100.00
55517;BME280;41724;51.176;-0.708;2024-01-30T00:42:19;101630.17;;;9.16;100.00
55517;BME280;41724;51.176;-0.708;2024-01-30T00:44:47;101630.92;;;8.58;100.00
55517;BME280;41724;51.176;-0.708;2024-01-30T00:47:14;101627.44;;;9.18;100.00
55517;BME280;41724;51.176;-0.708;2024-01-30T00:49:41;101622.98;;;8.85;100.00
55517;BME280;41724;51.176;-0.708;2024-01-30T00:52:08;101635.95;;;9.03;100.00
55517;BME280;41724;51.176;-0.708;2024-01-30T00:54:35;101651.23;;;9.49;100.00
55517;BME280;41724;51.176;-0.708;2024-01-30T00:57:02;101644.70;;;9.11;100.00
55517;BME280;41724;51.176;-0.708;2024-01-30T00:59:29;101647.64;;;8.88;100.00
55517;BME280;41724;51.176;-0.708;2024-01-30T01:01:56;101642.85;;;9.20;100.00
55517;BME280;41724;51.176;-0.708;2024-01-30T01:04:23;101639.00;;;8.92;100.00
55517;BME280;41724;51.176;-0.708;2024-01-30T01:06:51;101646.39;;;8.76;100.00
55517;BME280;41724;51.176;-0.708;2024-01-30T01:09:18;101653.71;;;8.37;100.00
55517;BME280;41724;51.176;-0.708;2024-01-30T01:11:45;101659.15;;;8.36;100.00
55517;BME280;41724;51.176;-0.708;2024-01-30T01:14:12;101645.51;;;8.97;100.00
55517;BME280;41724;51.176;-0.708;2024-01-30T01:16:39;101639.85;;;9.76;100.00
55517;BME280;41724;51.176;-0.708;2024-01-30T01:19:06;101638.01;;;9.13;100.00
55517;BME280;41724;51.176;-0.708;2024-01-30T01:21:33;101639.03;;;9.19;100.00
55517;BME280;41724;51.176;-0.708;2024-01-30T01:24:00;101632.71;;;9.66;100.00
55517;BME280;41724;51.176;-0.708;2024-01-30T01:26:27;101642.69;;;9.39;100.00
55517;BME280;41724;51.176;-0.708;2024-01-30T01:28:54;101650.97;;;9.24;100.00
55517;BME280;41724;51.176;-0.708;2024-01-30T01:31:22;101652.14;;;10.04;100.00
55517;BME280;41724;51.176;-0.708;2024-01-30T01:33:49;101650.04;;;9.04;100.00
55517;BME280;41724;51.176;-0.708;2024-01-30T01:36:16;101636.26;;;9.09;100.00
55517;BME280;41724;51.176;-0.708;2024-01-30T01:38:43;101641.53;;;9.32;100.00
55517;BME280;41724;51.176;-0.708;2024-01-30T01:41:10;101652.14;;;9.52;100.00
55517;BME280;41724;51.176;-0.708;2024-01-30T01:43:37;101658.14;;;8.83;100.00
55517;BME280;41724;51.176;-0.708;2024-01-30T01:46:04;101664.37;;;9.23;100.00
55517;BME280;41724;51.176;-0.708;2024-01-30T01:48:32;101669.57;;;9.68;100.00
55517;BME280;41724;51.176;-0.708;2024-01-30T01:50:59;101656.96;;;10.00;100.00
55517;BME280;41724;51.176;-0.708;2024-01-30T01:53:26;101662.93;;;10.07;100.00
55517;BME280;41724;51.176;-0.708;2024-01-30T01:55:54;101650.94;;;10.22;98.94
55517;BME280;41724;51.176;-0.708;2024-01-30T01:58:22;101637.55;;;9.50;100.00
55517;BME280;41724;51.176;-0.708;2024-01-30T02:00:49;101647.67;;;9.16;100.00
55517;BME280;41724;51.176;-0.708;2024-01-30T02:03:18;101654.91;;;8.87;100.00
55517;BME280;41724;51.176;-0.708;2024-01-30T02:05:45;101649.77;;;9.39;100.00
55517;BME280;41724;51.176;-0.708;2024-01-30T02:08:13;101658.63;;;8.07;100.00
55517;BME280;41724;51.176;-0.708;2024-01-30T02:10:40;101648.95;;;7.49;100.00
55517;BME280;41724;51.176;-0.708;2024-01-30T02:13:07;101652.16;;;7.80;100.00
55517;BME280;41724;51.176;-0.708;2024-01-30T02:15:34;101657.86;;;7.94;100.00
55517;BME280;41724;51.176;-0.708;2024-01-30T02:18:01;101660.90;;;8.67;100.00
55517;BME280;41724;51.176;-0.708;2024-01-30T02:20:30;101659.86;;;8.25;100.00
55517;BME280;41724;51.176;-0.708;2024-01-30T02:22:59;101662.60;;;8.64;100.00
55517;BME280;41724;51.176;-0.708;2024-01-30T02:25:32;101672.36;;;8.53;100.00
55517;BME280;41724;51.176;-0.708;2024-01-30T02:27:59;101676.02;;;8.47;100.00
55517;BME280;41724;51.176;-0.708;2024-01-30T02:30:26;101658.66;;;9.30;100.00
55517;BME280;41724;51.176;-0.708;2024-01-30T02:32:53;101649.32;;;9.67;100.00
55517;BME280;41724;51.176;-0.708;2024-01-30T02:35:20;101645.49;;;9.88;100.00
55517;BME280;41724;51.176;-0.708;2024-01-30T02:37:48;101642.58;;;8.90;100.00
55517;BME280;41724;51.176;-0.708;2024-01-30T02:40:15;101655.83;;;9.01;100.00
55517;BME280;41724;51.176;-0.708;2024-01-30T02:42:42;101662.70;;;9.79;100.00
55517;BME280;41724;51.176;-0.708;2024-01-30T02:45:10;101665.90;;;9.11;100.00
55517;BME280;41724;51.176;-0.708;2024-01-30T02:47:38;101651.24;;;9.81;100.00
55517;BME280;41724;51.176;-0.708;2024-01-30T02:50:06;101666.63;;;8.02;100.00
55517;BME280;41724;51.176;-0.708;2024-01-30T02:52:34;101673.49;;;9.15;100.00
55517;BME280;41724;51.176;-0.708;2024-01-30T02:55:02;101665.74;;;9.51;100.00
55517;BME280;41724;51.176;-0.708;2024-01-30T02:57:29;101653.45;;;8.69;100.00
55517;BME280;41724;51.176;-0.708;2024-01-30T02:59:56;101655.70;;;8.35;100.00
55517;BME280;41724;51.176;-0.708;2024-01-30T03:02:23;101669.63;;;8.20;100.00
55517;BME280;41724;51.176;-0.708;2024-01-30T03:04:50;101686.90;;;7.82;100.00
55517;BME280;41724;51.176;-0.708;2024-01-30T03:07:17;101665.34;;;8.42;100.00
55517;BME280;41724;51.176;-0.708;2024-01-30T03:09:44;101680.45;;;8.46;100.00
55517;BME280;41724;51.176;-0.708;2024-01-30T03:12:12;101687.52;;;9.64;100.00
55517;BME280;41724;51.176;-0.708;2024-01-30T03:14:39;101691.85;;;8.84;100.00
55517;BME280;41724;51.176;-0.708;2024-01-30T03:17:06;101680.46;;;8.75;100.00
55517;BME280;41724;51.176;-0.708;2024-01-30T03:19:33;101660.22;;;8.98;100.00
55517;BME280;41724;51.176;-0.708;2024-01-30T03:22:00;101660.50;;;8.99;100.00
55517;BME280;41724;51.176;-0.708;2024-01-30T03:24:27;101663.89;;;8.33;100.00
55517;BME280;41724;51.176;-0.708;2024-01-30T03:26:54;101663.47;;;8.97;100.00
55517;BME280;41724;51.176;-0.708;2024-01-30T03:29:22;101669.90;;;9.58;100.00
55517;BME280;41724;51.176;-0.708;2024-01-30T03:31:49;101669.77;;;9.36;100.00
55517;BME280;41724;51.176;-0.708;2024-01-30T03:34:17;101671.30;;;10.20;100.00
55517;BME280;41724;51.176;-0.708;2024-01-30T03:36:44;101681.95;;;9.12;100.00
55517;BME280;41724;51.176;-0.708;2024-01-30T03:39:11;101668.74;;;10.10;100.00
55517;BME280;41724;51.176;-0.708;2024-01-30T03:41:38;101667.69;;;9.27;100.00
55517;BME280;41724;51.176;-0.708;2024-01-30T03:44:06;101666.55;;;8.70;100.00
55517;BME280;41724;51.176;-0.708;2024-01-30T03:46:33;101668.02;;;9.22;100.00
55517;BME280;41724;51.176;-0.708;2024-01-30T03:49:00;101674.97;;;8.49;100.00
55517;BME280;41724;51.176;-0.708;2024-01-30T03:51:27;101673.54;;;9.12;100.00
55517;BME280;41724;51.176;-0.708;2024-01-30T03:53:54;101674.34;;;9.00;100.00
55517;BME280;41724;51.176;-0.708;2024-01-30T03:56:21;101664.71;;;9.56;100.00
55517;BME280;41724;51.176;-0.708;2024-01-30T03:58:49;101673.62;;;9.91;100.00
55517;BME280;41724;51.176;-0.708;2024-01-30T04:01:16;101688.76;;;8.64;100.00
55517;BME280;41724;51.176;-0.708;2024-01-30T04:03:43;101674.50;;;9.18;100.00
55517;BME280;41724;51.176;-0.708;2024-01-30T04:06:10;101674.17;;;9.67;100.00
55517;BME280;41724;51.176;-0.708;2024-01-30T04:08:37;101675.98;;;9.40;100.00
55517;BME280;41724;51.176;-0.708;2024-01-30T04:11:04;101681.45;;;8.57;100.00
55517;BME280;41724;51.176;-0.708;2024-01-30T04:13:32;101678.27;;;9.34;100.00
55517;BME280;41724;51.176;-0.708;2024-01-30T04:15:59;101676.12;;;9.58;100.00
55517;BME280;41724;51.176;-0.708;2024-01-30T04:18:26;101685.35;;;9.01;100.00
55517;BME280;41724;51.176;-0.708;2024-01-30T04:20:53;101690.70;;;8.91;100.00
55517;BME280;41724;51.176;-0.708;2024-01-30T04:23:20;101694.07;;;8.96;100.00
55517;BME280;41724;51.176;-0.708;2024-01-30T04:25:47;101699.98;;;7.98;100.00
55517;BME280;41724;51.176;-0.708;2024-01-30T04:28:15;101695.28;;;8.59;100.00
55517;BME280;41724;51.176;-0.708;2024-01-30T04:30:42;101707.75;;;8.79;100.00
55517;BME280;41724;51.176;-0.708;2024-01-30T04:33:10;101717.84;;;7.61;100.00
55517;BME280;41724;51.176;-0.708;2024-01-30T04:35:37;101711.30;;;7.55;100.00
55517;BME280;41724;51.176;-0.708;2024-01-30T04:38:04;101713.47;;;7.77;100.00
55517;BME280;41724;51.176;-0.708;2024-01-30T04:40:31;101717.27;;;7.79;100.00
55517;BME280;41724;51.176;-0.708;2024-01-30T04:42:58;101724.94;;;7.98;100.00
55517;BME280;41724;51.176;-0.708;2024-01-30T04:45:26;101733.83;;;9.30;97.82
55517;BME280;41724;51.176;-0.708;2024-01-30T04:47:53;101733.61;;;9.43;93.31
55517;BME280;41724;51.176;-0.708;2024-01-30T04:50:20;101743.18;;;8.60;94.79
55517;BME280;41724;51.176;-0.708;2024-01-30T04:52:47;101767.37;;;9.15;91.21
55517;BME280;41724;51.176;-0.708;2024-01-30T04:55:14;101759.82;;;8.44;93.43
55517;BME280;41724;51.176;-0.708;2024-01-30T04:57:41;101757.94;;;8.74;92.18
55517;BME280;41724;51.176;-0.708;2024-01-30T05:00:09;101765.98;;;8.56;90.40
55517;BME280;41724;51.176;-0.708;2024-01-30T05:02:36;101776.35;;;9.19;88.48
55517;BME280;41724;51.176;-0.708;2024-01-30T05:05:04;101784.76;;;8.44;90.05
55517;BME280;41724;51.176;-0.708;2024-01-30T05:07:31;101786.65;;;9.08;87.49
55517;BME280;41724;51.176;-0.708;2024-01-30T05:09:59;101794.36;;;8.83;88.63
55517;BME280;41724;51.176;-0.708;2024-01-30T05:12:26;101800.34;;;8.96;88.96
55517;BME280;41724;51.176;-0.708;2024-01-30T05:14:53;101810.92;;;8.64;88.12
55517;BME280;41724;51.176;-0.708;2024-01-30T05:17:20;101813.53;;;8.02;94.34
55517;BME280;41724;51.176;-0.708;2024-01-30T05:19:47;101813.63;;;8.27;91.92
55517;BME280;41724;51.176;-0.708;2024-01-30T05:22:14;101814.82;;;7.65;95.04
55517;BME280;41724;51.176;-0.708;2024-01-30T05:24:42;101832.81;;;7.56;96.54
55517;BME280;41724;51.176;-0.708;2024-01-30T05:27:09;101826.17;;;6.49;100.00
55517;BME280;41724;51.176;-0.708;2024-01-30T05:29:36;101831.26;;;6.60;100.00
55517;BME280;41724;51.176;-0.708;2024-01-30T05:32:04;101832.64;;;7.41;98.20
55517;BME280;41724;51.176;-0.708;2024-01-30T05:34:31;101829.16;;;7.41;95.27
55517;BME280;41724;51.176;-0.708;2024-01-30T05:36:58;101845.67;;;7.40;96.28
55517;BME280;41724;51.176;-0.708;2024-01-30T05:39:25;101841.86;;;7.16;97.73
55517;BME280;41724;51.176;-0.708;2024-01-30T05:41:52;101856.62;;;6.19;100.00
55517;BME280;41724;51.176;-0.708;2024-01-30T05:44:20;101862.32;;;6.90;97.36
55517;BME280;41724;51.176;-0.708;2024-01-30T05:46:47;101863.93;;;7.36;92.38
55517;BME280;41724;51.176;-0.708;2024-01-30T05:49:14;101863.55;;;7.85;90.58
55517;BME280;41724;51.176;-0.708;2024-01-30T05:51:41;101867.88;;;7.73;88.99
55517;BME280;41724;51.176;-0.708;2024-01-30T05:54:09;101871.69;;;8.70;87.25
55517;BME280;41724;51.176;-0.708;2024-01-30T05:56:36;101873.49;;;7.99;88.26
55517;BME280;41724;51.176;-0.708;2024-01-30T05:59:03;101882.62;;;7.73;89.80
55517;BME280;41724;51.176;-0.708;2024-01-30T06:01:30;101874.16;;;7.89;89.04
55517;BME280;41724;51.176;-0.708;2024-01-30T06:03:57;101876.69;;;7.57;90.27
55517;BME280;41724;51.176;-0.708;2024-01-30T06:06:24;101891.51;;;7.76;88.74
55517;BME280;41724;51.176;-0.708;2024-01-30T06:08:52;101905.34;;;7.05;92.86
55517;BME280;41724;51.176;-0.708;2024-01-30T06:11:19;101898.31;;;7.42;88.85
55517;BME280;41724;51.176;-0.708;2024-01-30T06:13:46;101915.34;;;7.98;88.08
55517;BME280;41724;51.176;-0.708;2024-01-30T06:16:13;101911.34;;;7.76;86.83
55517;BME280;41724;51.176;-0.708;2024-01-30T06:18:40;101908.84;;;8.44;86.02
55517;BME280;41724;51.176;-0.708;2024-01-30T06:21:07;101917.61;;;7.79;87.88
55517;BME280;41724;51.176;-0.708;2024-01-30T06:23:35;101923.64;;;6.98;92.25
55517;BME280;41724;51.176;-0.708;2024-01-30T06:26:02;101928.36;;;8.21;87.37
55517;BME280;41724;51.176;-0.708;2024-01-30T06:28:29;101929.31;;;8.57;85.29
55517;BME280;41724;51.176;-0.708;2024-01-30T06:30:56;101927.04;;;7.68;85.98
55517;BME280;41724;51.176;-0.708;2024-01-30T06:33:23;101928.59;;;8.90;83.53
55517;BME280;41724;51.176;-0.708;2024-01-30T06:35:50;101931.62;;;8.94;81.70
55517;BME280;41724;51.176;-0.708;2024-01-30T06:38:18;101953.96;;;7.39;88.59
55517;BME280;41724;51.176;-0.708;2024-01-30T06:40:45;101952.86;;;6.59;93.26
55517;BME280;41724;51.176;-0.708;2024-01-30T06:43:12;101976.07;;;6.75;92.49
55517;BME280;41724;51.176;-0.708;2024-01-30T06:45:39;101966.00;;;6.70;93.71
55517;BME280;41724;51.176;-0.708;2024-01-30T06:48:07;101966.14;;;7.40;87.70
55517;BME280;41724;51.176;-0.708;2024-01-30T06:50:34;101972.80;;;7.83;87.64
55517;BME280;41724;51.176;-0.708;2024-01-30T06:53:01;101984.06;;;7.11;90.25
55517;BME280;41724;51.176;-0.708;2024-01-30T06:55:28;101986.52;;;7.38;87.88
55517;BME280;41724;51.176;-0.708;2024-01-30T06:57:55;101981.46;;;7.66;89.08
55517;BME280;41724;51.176;-0.708;2024-01-30T07:00:22;101982.96;;;7.62;86.04
55517;BME280;41724;51.176;-0.708;2024-01-30T07:02:49;101986.79;;;8.11;84.97
55517;BME280;41724;51.176;-0.708;2024-01-30T07:05:17;101990.33;;;8.06;84.68
55517;BME280;41724;51.176;-0.708;2024-01-30T07:07:44;101994.92;;;8.46;83.39
55517;BME280;41724;51.176;-0.708;2024-01-30T07:10:11;102003.51;;;7.80;84.19
55517;BME280;41724;51.176;-0.708;2024-01-30T07:12:38;102012.55;;;7.51;84.73
55517;BME280;41724;51.176;-0.708;2024-01-30T07:15:06;102021.18;;;7.71;83.66
55517;BME280;41724;51.176;-0.708;2024-01-30T07:17:32;102028.40;;;7.90;85.32
55517;BME280;41724;51.176;-0.708;2024-01-30T07:19:59;102038.08;;;8.00;83.98
55517;BME280;41724;51.176;-0.708;2024-01-30T07:22:27;102037.28;;;8.78;81.88
55517;BME280;41724;51.176;-0.708;2024-01-30T07:24:54;102035.24;;;7.79;82.10
55517;BME280;41724;51.176;-0.708;2024-01-30T07:27:21;102032.12;;;8.09;83.91
55517;BME280;41724;51.176;-0.708;2024-01-30T07:29:48;102041.81;;;7.90;81.70
55517;BME280;41724;51.176;-0.708;2024-01-30T07:32:15;102048.99;;;7.63;83.72
55517;BME280;41724;51.176;-0.708;2024-01-30T07:34:43;102049.47;;;7.59;82.45
55517;BME280;41724;51.176;-0.708;2024-01-30T07:37:10;102050.05;;;7.54;84.18
55517;BME280;41724;51.176;-0.708;2024-01-30T07:39:37;102051.74;;;8.29;80.38
55517;BME280;41724;51.176;-0.708;2024-01-30T07:42:04;102057.56;;;8.55;77.21
55517;BME280;41724;51.176;-0.708;2024-01-30T07:44:31;102068.59;;;8.98;77.52
55517;BME280;41724;51.176;-0.708;2024-01-30T07:46:58;102066.24;;;7.37;82.03
55517;BME280;41724;51.176;-0.708;2024-01-30T07:49:26;102070.87;;;7.81;80.51
55517;BME280;41724;51.176;-0.708;2024-01-30T07:51:53;102072.81;;;9.17;76.66
55517;BME280;41724;51.176;-0.708;2024-01-30T07:54:20;102089.06;;;7.59;80.09
55517;BME280;41724;51.176;-0.708;2024-01-30T07:56:47;102080.63;;;8.13;79.63
55517;BME280;41724;51.176;-0.708;2024-01-30T07:59:14;102071.63;;;8.62;77.97
55517;BME280;41724;51.176;-0.708;2024-01-30T08:01:41;102081.63;;;8.47;76.55
55517;BME280;41724;51.176;-0.708;2024-01-30T08:04:08;102086.25;;;8.75;76.06
55517;BME280;41724;51.176;-0.708;2024-01-30T08:06:36;102098.59;;;7.57;79.47
55517;BME280;41724;51.176;-0.708;2024-01-30T08:09:03;102100.93;;;7.23;81.52
55517;BME280;41724;51.176;-0.708;2024-01-30T08:11:30;102107.92;;;8.61;79.78
55517;BME280;41724;51.176;-0.708;2024-01-30T08:13:57;102109.60;;;7.27;82.10
55517;BME280;41724;51.176;-0.708;2024-01-30T08:16:24;102114.37;;;7.11;82.93
55517;BME280;41724;51.176;-0.708;2024-01-30T08:18:52;102109.35;;;8.18;80.18
55517;BME280;41724;51.176;-0.708;2024-01-30T08:21:19;102112.44;;;8.95;75.82
55517;BME280;41724;51.176;-0.708;2024-01-30T08:23:47;102125.06;;;8.59;77.37
55517;BME280;41724;51.176;-0.708;2024-01-30T08:26:14;102127.87;;;8.67;76.66
55517;BME280;41724;51.176;-0.708;2024-01-30T08:28:41;102124.86;;;8.41;78.13
55517;BME280;41724;51.176;-0.708;2024-01-30T08:31:10;102133.18;;;7.59;80.47
55517;BME280;41724;51.176;-0.708;2024-01-30T08:33:37;102139.34;;;8.49;76.20
55517;BME280;41724;51.176;-0.708;2024-01-30T08:36:04;102145.20;;;8.30;75.82
55517;BME280;41724;51.176;-0.708;2024-01-30T08:38:31;102151.27;;;8.25;76.32
55517;BME280;41724;51.176;-0.708;2024-01-30T08:40:58;102152.04;;;8.91;73.78
55517;BME280;41724;51.176;-0.708;2024-01-30T08:43:26;102155.66;;;8.78;73.67
55517;BME280;41724;51.176;-0.708;2024-01-30T08:45:53;102155.31;;;9.48;73.06
55517;BME280;41724;51.176;-0.708;2024-01-30T08:48:20;102158.11;;;8.85;73.13
55517;BME280;41724;51.176;-0.708;2024-01-30T08:50:47;102157.50;;;8.33;76.56
55517;BME280;41724;51.176;-0.708;2024-01-30T08:53:14;102159.17;;;8.96;74.07
55517;BME280;41724;51.176;-0.708;2024-01-30T08:55:41;102156.53;;;9.54;72.74
55517;BME280;41724;51.176;-0.708;2024-01-30T08:58:08;102164.26;;;8.71;72.71
55517;BME280;41724;51.176;-0.708;2024-01-30T09:00:35;102159.05;;;9.80;69.85
55517;BME280;41724;51.176;-0.708;2024-01-30T09:03:03;102170.24;;;10.21;69.19
55517;BME280;41724;51.176;-0.708;2024-01-30T09:05:30;102180.62;;;8.98;72.26
55517;BME280;41724;51.176;-0.708;2024-01-30T09:07:57;102180.17;;;9.79;70.65
55517;BME280;41724;51.176;-0.708;2024-01-30T09:10:24;102189.80;;;9.10;72.86
55517;BME280;41724;51.176;-0.708;2024-01-30T09:12:51;102191.83;;;8.95;72.68
55517;BME280;41724;51.176;-0.708;2024-01-30T09:15:18;102193.25;;;9.65;72.16
55517;BME280;41724;51.176;-0.708;2024-01-30T09:17:45;102200.17;;;9.83;70.78
55517;BME280;41724;51.176;-0.708;2024-01-30T09:20:12;102204.67;;;10.05;70.38
55517;BME280;41724;51.176;-0.708;2024-01-30T09:22:39;102213.81;;;9.39;70.52
55517;BME280;41724;51.176;-0.708;2024-01-30T09:25:07;102222.21;;;9.89;69.83
55517;BME280;41724;51.176;-0.708;2024-01-30T09:27:33;102230.56;;;8.79;73.41
55517;BME280;41724;51.176;-0.708;2024-01-30T09:30:01;102228.81;;;9.50;71.74
55517;BME280;41724;51.176;-0.708;2024-01-30T09:32:28;102233.95;;;9.66;69.47
55517;BME280;41724;51.176;-0.708;2024-01-30T09:34:55;102232.43;;;10.19;68.68
55517;BME280;41724;51.176;-0.708;2024-01-30T09:37:22;102238.41;;;9.98;69.54
55517;BME280;41724;51.176;-0.708;2024-01-30T09:39:49;102239.44;;;10.41;69.32
55517;BME280;41724;51.176;-0.708;2024-01-30T09:42:25;102245.82;;;9.99;70.04
55517;BME280;41724;51.176;-0.708;2024-01-30T09:44:54;102242.51;;;10.90;68.91
55517;BME280;41724;51.176;-0.708;2024-01-30T09:47:21;102247.24;;;10.47;68.73
55517;BME280;41724;51.176;-0.708;2024-01-30T09:49:48;102250.42;;;10.71;68.07
55517;BME280;41724;51.176;-0.708;2024-01-30T09:52:16;102262.11;;;10.20;70.53
55517;BME280;41724;51.176;-0.708;2024-01-30T09:54:43;102265.78;;;9.41;72.33
55517;BME280;41724;51.176;-0.708;2024-01-30T09:57:12;102265.79;;;9.41;73.29
55517;BME280;41724;51.176;-0.708;2024-01-30T09:59:39;102266.71;;;10.08;70.74
55517;BME280;41724;51.176;-0.708;2024-01-30T10:02:07;102268.70;;;10.01;70.42
55517;BME280;41724;51.176;-0.708;2024-01-30T10:04:33;102270.52;;;9.96;70.64
55517;BME280;41724;51.176;-0.708;2024-01-30T10:07:02;102269.83;;;10.08;71.21
55517;BME280;41724;51.176;-0.708;2024-01-30T10:09:32;102276.76;;;9.95;69.86
55517;BME280;41724;51.176;-0.708;2024-01-30T10:11:59;102284.56;;;9.91;70.10
55517;BME280;41724;51.176;-0.708;2024-01-30T10:14:26;102295.21;;;9.65;71.68
55517;BME280;41724;51.176;-0.708;2024-01-30T10:16:55;102296.62;;;10.34;68.68
55517;BME280;41724;51.176;-0.708;2024-01-30T10:19:24;102301.41;;;10.64;68.15
55517;BME280;41724;51.176;-0.708;2024-01-30T10:21:52;102309.22;;;9.88;68.69
55517;BME280;41724;51.176;-0.708;2024-01-30T10:24:24;102318.91;;;10.98;66.67
55517;BME280;41724;51.176;-0.708;2024-01-30T10:26:52;102317.18;;;9.55;68.44
55517;BME280;41724;51.176;-0.708;2024-01-30T10:29:19;102324.61;;;10.09;67.59
55517;BME280;41724;51.176;-0.708;2024-01-30T10:31:57;102323.93;;;10.46;67.61
55517;BME280;41724;51.176;-0.708;2024-01-30T10:34:24;102336.03;;;9.96;68.70
55517;BME280;41724;51.176;-0.708;2024-01-30T10:37:00;102328.38;;;10.28;66.48
55517;BME280;41724;51.176;-0.708;2024-01-30T10:39:32;102335.91;;;9.67;69.43
55517;BME280;41724;51.176;-0.708;2024-01-30T10:42:05;102337.15;;;9.60;69.13
55517;BME280;41724;51.176;-0.708;2024-01-30T10:44:37;102338.92;;;9.84;69.49
55517;BME280;41724;51.176;-0.708;2024-01-30T10:47:10;102338.73;;;10.85;65.61
55517;BME280;41724;51.176;-0.708;2024-01-30T10:49:39;102351.35;;;11.57;64.52
55517;BME280;41724;51.176;-0.708;2024-01-30T10:52:08;102355.74;;;11.32;63.94
55517;BME280;41724;51.176;-0.708;2024-01-30T10:54:36;102352.58;;;10.92;63.76
55517;BME280;41724;51.176;-0.708;2024-01-30T10:57:04;102355.53;;;11.64;62.94
55517;BME280;41724;51.176;-0.708;2024-01-30T10:59:31;102358.63;;;12.01;61.24
55517;BME280;41724;51.176;-0.708;2024-01-30T11:02:00;102366.41;;;11.89;62.61
55517;BME280;41724;51.176;-0.708;2024-01-30T11:04:35;102374.41;;;11.70;62.17
55517;BME280;41724;51.176;-0.708;2024-01-30T11:07:02;102381.84;;;10.99;62.95
55517;BME280;41724;51.176;-0.708;2024-01-30T11:09:29;102388.78;;;11.02;62.99
55517;BME280;41724;51.176;-0.708;2024-01-30T11:11:58;102389.88;;;10.97;64.40
55517;BME280;41724;51.176;-0.708;2024-01-30T11:14:26;102386.44;;;10.70;64.52
55517;BME280;41724;51.176;-0.708;2024-01-30T11:16:56;102389.81;;;11.29;63.72
55517;BME280;41724;51.176;-0.708;2024-01-30T11:19:24;102395.89;;;11.02;63.90
55517;BME280;41724;51.176;-0.708;2024-01-30T11:21:53;102395.82;;;10.73;64.42
55517;BME280;41724;51.176;-0.708;2024-01-30T11:24:21;102403.22;;;10.13;64.89
55517;BME280;41724;51.176;-0.708;2024-01-30T11:26:48;102403.99;;;10.29;64.65
55517;BME280;41724;51.176;-0.708;2024-01-30T11:29:17;102409.00;;;10.42;66.29
55517;BME280;41724;51.176;-0.708;2024-01-30T11:31:53;102411.80;;;10.76;65.60
55517;BME280;41724;51.176;-0.708;2024-01-30T11:34:20;102416.32;;;9.39;67.93
55517;BME280;41724;51.176;-0.708;2024-01-30T11:36:51;102415.55;;;10.50;66.55
55517;BME280;41724;51.176;-0.708;2024-01-30T11:39:20;102414.21;;;10.44;66.44
55517;BME280;41724;51.176;-0.708;2024-01-30T11:41:50;102417.01;;;9.99;67.20
55517;BME280;41724;51.176;-0.708;2024-01-30T11:44:18;102417.81;;;9.56;69.01
55517;BME280;41724;51.176;-0.708;2024-01-30T11:46:45;102415.87;;;10.55;66.25
55517;BME280;41724;51.176;-0.708;2024-01-30T11:49:12;102420.93;;;10.52;64.90
55517;BME280;41724;51.176;-0.708;2024-01-30T11:51:39;102418.42;;;9.63;67.53
55517;BME280;41724;51.176;-0.708;2024-01-30T11:54:07;102419.33;;;10.31;65.83
55517;BME280;41724;51.176;-0.708;2024-01-30T11:56:36;102414.93;;;10.19;66.61
55517;BME280;41724;51.176;-0.708;2024-01-30T11:59:04;102421.28;;;10.51;65.55
55517;BME280;41724;51.176;-0.708;2024-01-30T12:01:31;102415.58;;;11.17;64.82
55517;BME280;41724;51.176;-0.708;2024-01-30T12:03:59;102420.85;;;11.57;62.85
55517;BME280;41724;51.176;-0.708;2024-01-30T12:06:26;102439.98;;;10.35;64.27
55517;BME280;41724;51.176;-0.708;2024-01-30T12:08:58;102436.26;;;10.37;63.95
55517;BME280;41724;51.176;-0.708;2024-01-30T12:11:25;102432.49;;;10.69;63.24
55517;BME280;41724;51.176;-0.708;2024-01-30T12:13:53;102429.63;;;10.37;64.45
55517;BME280;41724;51.176;-0.708;2024-01-30T12:16:20;102432.07;;;9.44;67.29
55517;BME280;41724;51.176;-0.708;2024-01-30T12:18:47;102435.44;;;9.77;67.15
55517;BME280;41724;51.176;-0.708;2024-01-30T12:21:16;102439.66;;;10.30;64.36
55517;BME280;41724;51.176;-0.708;2024-01-30T12:23:44;102434.87;;;10.46;64.98
55517;BME280;41724;51.176;-0.708;2024-01-30T12:26:12;102435.34;;;11.17;63.19
55517;BME280;41724;51.176;-0.708;2024-01-30T12:28:48;102437.66;;;10.85;61.91
55517;BME280;41724;51.176;-0.708;2024-01-30T12:31:15;102442.44;;;10.61;62.86
55517;BME280;41724;51.176;-0.708;2024-01-30T12:33:42;102442.48;;;10.99;62.67
55517;BME280;41724;51.176;-0.708;2024-01-30T12:36:11;102442.84;;;11.31;60.59
55517;BME280;41724;51.176;-0.708;2024-01-30T12:38:38;102453.88;;;9.53;64.13
55517;BME280;41724;51.176;-0.708;2024-01-30T12:41:07;102458.74;;;9.80;64.97
55517;BME280;41724;51.176;-0.708;2024-01-30T12:43:34;102462.95;;;10.00;64.81